Terminal Aerodrome Forecast
Issued by NWS

Home | Current Version | Previous Version | Text Only | Print | Product List | Glossary On
Versions: 1 2 3 4 5 6 7 8 9 10 11 12 13 14 15 16 17
000
FTAK31 PAJN 282329
TAFAGY
TAF
PAGY 282329Z 2900/2924 03008KT P6SM BKN080
     FM290300 20006KT P6SM VCSH SCT050 BKN120
     FM290900 VRB03KT P6SM SCT120
      AMD LTD TO CLD VIS AND WIND=

USA.gov is the U.S. government's official web portal to all federal, state and local government web resources and services.